Time;durP1;ratioP1;P1;durP2;ratioP2;P2;SDS_P1;SDS_P2;PMS_P1;PMS_P2;Temp;Humidity;BMP_temperature;BMP_pressure;BME280_temperature;BME280_humidity;BME280_pressure;Samples;Min_cycle;Max_cycle;Signal;HPM_P1;HPM_P2
2021/12/02 00:00:02;;;;;;;4.47;2.67;;;;;;;;;;5051054;28;20032;-72
2021/12/02 00:02:28;;;;;;;4.95;3.17;;;;;;;;;;5045055;28;20029;-71
2021/12/02 00:04:53;;;;;;;5.22;2.60;;;;;;;;;;5050725;28;20500;-72
2021/12/02 00:07:18;;;;;;;4.68;2.58;;;;;;;;;;5050831;28;20538;-72
2021/12/02 00:09:45;;;;;;;6.25;2.70;;;;;;;;;;5051370;28;20445;-72
2021/12/02 00:12:10;;;;;;;6.60;2.55;;;;;;;;;;5050816;28;20025;-72
2021/12/02 00:14:42;;;;;;;5.55;2.72;;;;;;;;;;5050032;28;20028;-72
2021/12/02 00:17:13;;;;;;;5.63;2.33;;;;;;;;;;5040442;28;20031;-72
2021/12/02 00:22:25;;;;;;;4.63;2.15;;;;;;;;;;5050215;28;20059;-72
2021/12/02 00:24:55;;;;;;;4.65;2.17;;;;;;;;;;5049683;28;20025;-72
2021/12/02 00:27:23;;;;;;;6.40;2.00;;;;;;;;;;5050024;28;20056;-72
2021/12/02 00:29:52;;;;;;;2.60;1.67;;;;;;;;;;5049405;28;21323;-72
2021/12/02 00:32:18;;;;;;;6.13;1.88;;;;;;;;;;5049939;28;20024;-71
2021/12/02 00:34:45;;;;;;;5.63;1.90;;;;;;;;;;5049643;28;20029;-72
2021/12/02 00:37:11;;;;;;;4.93;1.75;;;;;;;;;;5049556;28;20497;-72
2021/12/02 00:39:37;;;;;;;3.40;1.77;;;;;;;;;;5049850;28;20029;-72
2021/12/02 00:42:03;;;;;;;3.50;1.75;;;;;;;;;;5049975;28;20021;-71
2021/12/02 00:44:32;;;;;;;3.67;1.70;;;;;;;;;;5048796;28;20032;-71
2021/12/02 00:46:58;;;;;;;3.97;1.63;;;;;;;;;;5049767;28;20021;-72
2021/12/02 00:49:23;;;;;;;4.25;1.60;;;;;;;;;;5049923;28;20074;-72
2021/12/02 00:51:53;;;;;;;5.32;1.83;;;;;;;;;;5049695;28;20325;-72
2021/12/02 00:54:20;;;;;;;7.13;2.15;;;;;;;;;;5049064;28;20025;-72
2021/12/02 00:56:46;;;;;;;5.38;1.98;;;;;;;;;;5049551;28;20104;-72
2021/12/02 00:59:11;;;;;;;4.60;1.80;;;;;;;;;;5049352;28;20061;-72
2021/12/02 01:01:38;;;;;;;5.15;1.65;;;;;;;;;;5047582;28;20475;-72
2021/12/02 01:04:12;;;;;;;5.78;1.70;;;;;;;;;;5048103;28;20029;-72
2021/12/02 01:06:39;;;;;;;4.32;1.90;;;;;;;;;;5049894;28;20141;-72
2021/12/02 01:09:06;;;;;;;4.75;1.80;;;;;;;;;;5049894;28;20025;-72
2021/12/02 01:11:31;;;;;;;4.72;2.05;;;;;;;;;;5050055;28;20020;-71
2021/12/02 01:13:57;;;;;;;7.13;2.05;;;;;;;;;;5049037;28;20547;-72
2021/12/02 01:16:23;;;;;;;5.28;1.85;;;;;;;;;;5049912;28;20485;-72
2021/12/02 01:18:49;;;;;;;6.35;2.15;;;;;;;;;;5037220;28;20033;-72
2021/12/02 01:21:18;;;;;;;4.80;2.10;;;;;;;;;;5030119;28;20025;-72
2021/12/02 01:23:44;;;;;;;6.03;2.58;;;;;;;;;;5040897;28;20482;-72
2021/12/02 01:26:10;;;;;;;6.55;2.42;;;;;;;;;;5049816;28;20467;-71
2021/12/02 01:28:37;;;;;;;6.47;2.20;;;;;;;;;;5049419;28;20043;-72
2021/12/02 01:31:02;;;;;;;7.28;2.33;;;;;;;;;;5049671;28;20078;-72
2021/12/02 01:33:28;;;;;;;3.25;1.88;;;;;;;;;;5048859;28;20051;-72
2021/12/02 01:35:59;;;;;;;3.13;2.17;;;;;;;;;;5048095;28;20090;-72
2021/12/02 01:38:27;;;;;;;5.80;2.30;;;;;;;;;;5049425;28;20028;-72
2021/12/02 01:40:54;;;;;;;6.50;2.78;;;;;;;;;;5049476;28;20029;-72
2021/12/02 01:43:22;;;;;;;6.40;3.85;;;;;;;;;;5048798;28;20036;-72
2021/12/02 01:45:48;;;;;;;7.70;2.38;;;;;;;;;;5049480;28;20258;-72
2021/12/02 01:48:23;;;;;;;3.95;1.85;;;;;;;;;;5049265;28;20032;-72
2021/12/02 01:51:03;;;;;;;3.72;2.20;;;;;;;;;;5048895;28;20021;-72
2021/12/02 01:53:34;;;;;;;3.55;2.20;;;;;;;;;;5037910;28;20056;-73
2021/12/02 01:56:30;;;;;;;4.45;2.15;;;;;;;;;;5041846;28;20051;-72
2021/12/02 01:59:13;;;;;;;4.82;2.10;;;;;;;;;;5040255;28;20045;-72
2021/12/02 02:01:41;;;;;;;5.65;2.22;;;;;;;;;;5048787;28;20100;-72
2021/12/02 02:04:07;;;;;;;4.20;2.00;;;;;;;;;;5048414;28;20514;-72
2021/12/02 02:06:44;;;;;;;3.08;2.08;;;;;;;;;;5048448;28;20211;-72
2021/12/02 02:09:09;;;;;;;4.07;2.30;;;;;;;;;;5048925;28;20025;-72
2021/12/02 02:11:35;;;;;;;2.58;1.92;;;;;;;;;;5049047;28;20111;-73
2021/12/02 02:14:01;;;;;;;7.50;2.05;;;;;;;;;;5048225;28;20041;-73
2021/12/02 02:16:28;;;;;;;4.25;2.15;;;;;;;;;;5048829;28;20031;-72
2021/12/02 02:18:53;;;;;;;2.70;2.00;;;;;;;;;;5048712;28;20059;-73
2021/12/02 02:21:23;;;;;;;4.88;2.03;;;;;;;;;;5048945;28;20021;-72
2021/12/02 02:24:11;;;;;;;8.57;2.33;;;;;;;;;;5047626;28;20451;-72
2021/12/02 02:26:37;;;;;;;3.15;2.28;;;;;;;;;;5049015;28;20437;-72
2021/12/02 02:29:07;;;;;;;5.30;2.70;;;;;;;;;;5035467;28;20059;-73
2021/12/02 02:31:35;;;;;;;5.53;2.25;;;;;;;;;;5039980;28;20505;-73
2021/12/02 02:34:00;;;;;;;3.15;1.80;;;;;;;;;;5047967;28;20475;-73
2021/12/02 02:36:32;;;;;;;2.28;1.08;;;;;;;;;;5049035;28;20033;-73
2021/12/02 02:38:59;;;;;;;1.10;1.00;;;;;;;;;;5050288;28;20052;-72
2021/12/02 02:41:32;;;;;;;1.65;0.90;;;;;;;;;;5052617;28;20032;-73
2021/12/02 02:43:59;;;;;;;1.17;1.00;;;;;;;;;;5051417;28;20037;-73
2021/12/02 02:46:28;;;;;;;3.22;0.90;;;;;;;;;;5052694;28;20615;-73
2021/12/02 02:48:55;;;;;;;4.85;1.17;;;;;;;;;;5052523;28;20670;-73
2021/12/02 02:51:21;;;;;;;0.88;0.85;;;;;;;;;;5052085;28;20102;-74
2021/12/02 02:53:56;;;;;;;1.77;1.10;;;;;;;;;;5051716;28;20025;-73
2021/12/02 02:56:24;;;;;;;0.85;0.80;;;;;;;;;;5052517;28;20035;-73
2021/12/02 02:59:10;;;;;;;1.63;0.80;;;;;;;;;;5051802;28;20031;-73
2021/12/02 03:09:18;;;;;;;0.80;0.80;;;;;;;;;;5052039;28;20394;-72
2021/12/02 03:11:48;;;;;;;0.60;0.60;;;;;;;;;;5052191;28;20078;-73
2021/12/02 03:14:19;;;;;;;2.30;0.70;;;;;;;;;;5051511;28;20028;-72
2021/12/02 03:16:45;;;;;;;0.60;0.60;;;;;;;;;;5041141;28;20040;-72
2021/12/02 03:19:15;;;;;;;0.70;0.63;;;;;;;;;;5031928;28;20029;-72
2021/12/02 03:21:41;;;;;;;0.70;0.70;;;;;;;;;;5032026;28;20025;-72
2021/12/02 03:24:07;;;;;;;0.88;0.70;;;;;;;;;;5046586;28;20036;-73
2021/12/02 03:26:33;;;;;;;0.93;0.80;;;;;;;;;;5052112;28;20025;-72
2021/12/02 03:28:59;;;;;;;0.70;0.70;;;;;;;;;;5051824;28;20112;-72
2021/12/02 03:31:25;;;;;;;1.17;0.63;;;;;;;;;;5051489;28;20078;-73
2021/12/02 03:33:51;;;;;;;1.50;0.70;;;;;;;;;;5050321;28;20016;-73
2021/12/02 03:36:18;;;;;;;0.93;0.93;;;;;;;;;;5051486;28;20432;-73
2021/12/02 03:38:44;;;;;;;0.60;0.50;;;;;;;;;;5051695;28;20094;-73
2021/12/02 03:41:10;;;;;;;0.60;0.60;;;;;;;;;;5051455;28;20491;-72
2021/12/02 03:43:37;;;;;;;0.70;0.60;;;;;;;;;;5050984;28;20037;-73
2021/12/02 03:46:03;;;;;;;0.60;0.60;;;;;;;;;;5051740;28;20090;-74
2021/12/02 03:48:30;;;;;;;0.85;0.60;;;;;;;;;;5050798;28;20028;-73
2021/12/02 03:50:55;;;;;;;0.50;0.50;;;;;;;;;;5051320;28;20033;-73
2021/12/02 03:53:20;;;;;;;1.08;0.80;;;;;;;;;;5050813;28;20033;-73
2021/12/02 03:55:46;;;;;;;0.60;0.60;;;;;;;;;;5051425;28;20433;-73
2021/12/02 03:58:11;;;;;;;1.17;0.90;;;;;;;;;;5051491;28;20021;-72
2021/12/02 04:00:37;;;;;;;1.40;0.80;;;;;;;;;;5051184;28;20143;-72
2021/12/02 04:03:02;;;;;;;0.70;0.70;;;;;;;;;;5051053;28;20116;-72
2021/12/02 04:05:27;;;;;;;0.77;0.70;;;;;;;;;;5050441;28;20029;-73
2021/12/02 04:07:53;;;;;;;0.80;0.80;;;;;;;;;;5050977;28;20072;-74
2021/12/02 04:10:19;;;;;;;0.70;0.70;;;;;;;;;;5035073;28;20143;-73
2021/12/02 04:15:13;;;;;;;0.95;0.73;;;;;;;;;;5050425;28;20059;-73
2021/12/02 04:17:42;;;;;;;0.85;0.80;;;;;;;;;;5051291;28;20032;-72
2021/12/02 04:20:22;;;;;;;0.88;0.70;;;;;;;;;;5050783;28;20056;-73
2021/12/02 04:22:53;;;;;;;1.73;1.02;;;;;;;;;;5050353;28;20033;-74
2021/12/02 04:25:19;;;;;;;1.30;0.70;;;;;;;;;;5043287;28;20083;-73
2021/12/02 04:27:45;;;;;;;0.73;0.73;;;;;;;;;;5051061;28;20104;-73
2021/12/02 04:30:13;;;;;;;1.08;0.90;;;;;;;;;;5050532;28;20439;-72
2021/12/02 04:32:39;;;;;;;0.80;0.80;;;;;;;;;;5050465;28;20107;-73
2021/12/02 04:35:05;;;;;;;0.70;0.70;;;;;;;;;;5050155;28;20457;-73
2021/12/02 04:37:30;;;;;;;1.50;1.15;;;;;;;;;;5050235;28;20611;-73
2021/12/02 04:39:57;;;;;;;1.48;0.80;;;;;;;;;;5050869;28;20025;-72
2021/12/02 04:42:22;;;;;;;1.08;0.80;;;;;;;;;;5038439;28;20053;-73
2021/12/02 04:44:48;;;;;;;1.52;0.93;;;;;;;;;;5050184;28;20060;-73
2021/12/02 04:47:13;;;;;;;2.55;0.80;;;;;;;;;;5050160;28;20379;-73
2021/12/02 04:49:41;;;;;;;1.15;1.00;;;;;;;;;;5050395;28;20029;-72
2021/12/02 04:52:06;;;;;;;2.58;1.30;;;;;;;;;;5049974;28;20356;-72
2021/12/02 04:54:32;;;;;;;3.00;1.10;;;;;;;;;;5049306;28;20036;-72
2021/12/02 04:56:57;;;;;;;1.40;0.98;;;;;;;;;;5049973;28;20449;-72
2021/12/02 04:59:22;;;;;;;0.82;0.82;;;;;;;;;;5045884;28;20032;-72
2021/12/02 05:01:48;;;;;;;1.00;0.95;;;;;;;;;;5049544;28;20025;-72
2021/12/02 05:04:13;;;;;;;0.85;0.77;;;;;;;;;;5049455;28;20025;-73
2021/12/02 05:06:38;;;;;;;1.02;0.93;;;;;;;;;;5049461;28;20263;-72
2021/12/02 05:09:04;;;;;;;2.67;1.00;;;;;;;;;;5049956;28;20040;-72
2021/12/02 05:11:29;;;;;;;4.05;1.40;;;;;;;;;;5049779;28;20446;-72
2021/12/02 05:13:54;;;;;;;2.13;1.10;;;;;;;;;;5049691;28;20441;-72
2021/12/02 05:16:20;;;;;;;3.05;1.10;;;;;;;;;;5036217;28;20091;-72
2021/12/02 05:18:45;;;;;;;2.20;1.35;;;;;;;;;;5049719;28;20146;-72
2021/12/02 05:21:11;;;;;;;2.58;1.23;;;;;;;;;;5049612;28;20445;-72
2021/12/02 05:23:36;;;;;;;3.13;1.27;;;;;;;;;;5049391;28;20388;-72
2021/12/02 05:26:02;;;;;;;2.28;1.33;;;;;;;;;;5049445;28;20032;-72
2021/12/02 05:28:27;;;;;;;1.75;1.23;;;;;;;;;;5049114;28;20114;-72
2021/12/02 05:30:53;;;;;;;2.60;1.48;;;;;;;;;;5049115;28;20082;-72
2021/12/02 05:33:18;;;;;;;3.35;1.67;;;;;;;;;;5049059;28;20025;-72
2021/12/02 05:35:44;;;;;;;4.38;1.35;;;;;;;;;;5049699;28;20108;-72
2021/12/02 05:38:10;;;;;;;2.70;1.40;;;;;;;;;;5048125;28;20445;-72
2021/12/02 05:40:35;;;;;;;2.05;1.23;;;;;;;;;;5049335;28;20441;-72
2021/12/02 05:43:01;;;;;;;1.63;1.17;;;;;;;;;;5048924;28;20252;-73
2021/12/02 05:45:26;;;;;;;2.53;1.08;;;;;;;;;;5048989;28;20094;-72
2021/12/02 05:47:51;;;;;;;1.40;1.15;;;;;;;;;;5049402;28;20500;-72
2021/12/02 05:50:17;;;;;;;2.05;1.23;;;;;;;;;;5049446;28;20033;-73
2021/12/02 05:52:42;;;;;;;2.17;1.13;;;;;;;;;;5049097;28;20116;-72
2021/12/02 05:55:08;;;;;;;3.35;1.30;;;;;;;;;;5048320;28;20120;-73
2021/12/02 05:57:33;;;;;;;1.40;1.30;;;;;;;;;;5049286;28;20104;-72
2021/12/02 05:59:59;;;;;;;1.48;1.15;;;;;;;;;;5049405;28;20045;-71
2021/12/02 06:02:24;;;;;;;1.63;1.30;;;;;;;;;;5048884;28;20425;-72
2021/12/02 06:04:52;;;;;;;1.45;1.00;;;;;;;;;;5039557;28;20033;-71
2021/12/02 06:07:18;;;;;;;2.00;1.10;;;;;;;;;;5048769;28;20032;-72
2021/12/02 06:09:45;;;;;;;1.00;0.90;;;;;;;;;;5032507;28;20037;-73
2021/12/02 06:12:11;;;;;;;1.67;1.00;;;;;;;;;;5037508;28;20052;-72
2021/12/02 06:14:37;;;;;;;1.05;0.77;;;;;;;;;;5051651;28;20024;-72
2021/12/02 06:17:02;;;;;;;1.10;0.90;;;;;;;;;;5053130;28;20094;-72
2021/12/02 06:19:28;;;;;;;3.20;2.22;;;;;;;;;;5052500;28;20056;-72
2021/12/02 06:21:55;;;;;;;17.63;14.63;;;;;;;;;;5052874;28;20033;-72
2021/12/02 06:24:27;;;;;;;8.45;7.35;;;;;;;;;;5048521;28;20028;-72
2021/12/02 06:26:53;;;;;;;5.50;3.08;;;;;;;;;;5041742;28;20103;-73
2021/12/02 06:29:18;;;;;;;1.88;1.77;;;;;;;;;;5045997;28;20116;-72
2021/12/02 06:31:43;;;;;;;1.50;1.40;;;;;;;;;;5044706;28;20077;-71
2021/12/02 06:34:09;;;;;;;1.65;1.20;;;;;;;;;;5043205;28;20021;-73
2021/12/02 06:36:36;;;;;;;0.90;0.90;;;;;;;;;;5042786;28;20368;-72
2021/12/02 06:39:02;;;;;;;2.13;1.00;;;;;;;;;;5049226;28;20032;-73
2021/12/02 06:41:27;;;;;;;1.65;1.00;;;;;;;;;;5049106;28;20560;-72
2021/12/02 06:43:52;;;;;;;2.55;1.48;;;;;;;;;;5052195;28;20033;-73
2021/12/02 06:46:18;;;;;;;3.60;2.65;;;;;;;;;;5052786;28;20060;-73
2021/12/02 06:48:43;;;;;;;2.20;1.80;;;;;;;;;;5052808;28;20029;-72
2021/12/02 06:51:12;;;;;;;2.90;1.77;;;;;;;;;;5052814;28;20029;-72
2021/12/02 06:53:38;;;;;;;2.80;2.25;;;;;;;;;;5052175;28;20031;-73
2021/12/02 06:56:03;;;;;;;3.42;2.00;;;;;;;;;;5052552;28;20025;-72
2021/12/02 06:58:29;;;;;;;1.80;1.50;;;;;;;;;;5051966;28;20108;-72
2021/12/02 07:00:54;;;;;;;3.17;1.65;;;;;;;;;;5053006;28;20378;-72
2021/12/02 07:03:19;;;;;;;2.28;1.30;;;;;;;;;;5051683;28;20040;-72
2021/12/02 07:05:44;;;;;;;1.85;1.27;;;;;;;;;;5051934;28;20025;-72
2021/12/02 07:08:10;;;;;;;2.97;1.20;;;;;;;;;;5052810;28;20029;-71
2021/12/02 07:10:36;;;;;;;2.55;1.20;;;;;;;;;;5048950;28;20082;-72
2021/12/02 07:13:01;;;;;;;2.60;1.50;;;;;;;;;;5044738;28;20068;-72
2021/12/02 07:15:30;;;;;;;1.65;1.10;;;;;;;;;;5048397;28;20024;-72
2021/12/02 07:17:58;;;;;;;2.50;1.48;;;;;;;;;;5051116;28;20017;-71
2021/12/02 07:20:24;;;;;;;2.30;1.67;;;;;;;;;;5051346;28;20090;-71
2021/12/02 07:22:50;;;;;;;3.42;1.30;;;;;;;;;;5048399;28;20029;-72
2021/12/02 07:25:16;;;;;;;2.63;1.60;;;;;;;;;;5044057;28;20017;-73
2021/12/02 07:27:42;;;;;;;1.73;1.40;;;;;;;;;;5048816;28;20037;-73
2021/12/02 07:30:08;;;;;;;1.63;1.40;;;;;;;;;;5047261;28;20111;-72
2021/12/02 07:32:40;;;;;;;5.40;1.73;;;;;;;;;;5049390;28;20433;-71
2021/12/02 07:35:15;;;;;;;4.65;2.63;;;;;;;;;;5049731;28;20036;-72
2021/12/02 07:37:46;;;;;;;5.68;4.07;;;;;;;;;;5050407;28;20037;-71
2021/12/02 07:40:13;;;;;;;4.53;2.13;;;;;;;;;;5048612;28;20087;-73
2021/12/02 07:42:39;;;;;;;4.10;1.80;;;;;;;;;;5048287;28;20029;-71
2021/12/02 07:45:06;;;;;;;5.72;1.38;;;;;;;;;;5047679;28;20024;-72
2021/12/02 07:47:33;;;;;;;3.60;1.70;;;;;;;;;;5051297;28;20036;-72
2021/12/02 07:49:59;;;;;;;1.85;1.60;;;;;;;;;;5050261;28;20054;-70
2021/12/02 07:52:25;;;;;;;3.83;2.13;;;;;;;;;;5046521;28;20478;-71
2021/12/02 07:54:52;;;;;;;4.15;1.60;;;;;;;;;;5048206;28;20060;-71
2021/12/02 07:57:18;;;;;;;4.00;2.13;;;;;;;;;;5050314;28;20099;-70
2021/12/02 07:59:43;;;;;;;3.08;2.08;;;;;;;;;;5047636;28;20471;-71
2021/12/02 08:02:14;;;;;;;4.82;1.88;;;;;;;;;;5043353;28;20060;-71
2021/12/02 08:04:39;;;;;;;4.15;2.17;;;;;;;;;;5042636;28;20029;-71
2021/12/02 08:07:04;;;;;;;4.30;1.80;;;;;;;;;;5050207;28;20043;-71
2021/12/02 08:09:30;;;;;;;3.10;1.85;;;;;;;;;;5050768;28;20028;-71
2021/12/02 08:11:58;;;;;;;6.13;2.50;;;;;;;;;;5050784;28;20037;-71
2021/12/02 08:14:24;;;;;;;5.20;1.75;;;;;;;;;;5048624;28;20024;-70
2021/12/02 08:16:49;;;;;;;2.85;1.55;;;;;;;;;;5050002;28;20025;-71
2021/12/02 08:19:14;;;;;;;5.30;1.80;;;;;;;;;;5050164;28;20025;-71
2021/12/02 08:21:40;;;;;;;1.98;1.35;;;;;;;;;;5050513;28;20029;-71
2021/12/02 08:24:05;;;;;;;2.97;1.90;;;;;;;;;;5050237;28;20032;-70
2021/12/02 08:26:31;;;;;;;1.88;1.17;;;;;;;;;;5050887;28;20470;-70
2021/12/02 08:28:57;;;;;;;3.70;1.50;;;;;;;;;;5050668;28;20039;-70
2021/12/02 08:31:22;;;;;;;2.13;1.27;;;;;;;;;;5050474;28;20110;-70
2021/12/02 08:33:49;;;;;;;2.25;1.70;;;;;;;;;;5049993;28;20021;-70
2021/12/02 08:36:15;;;;;;;3.15;1.25;;;;;;;;;;5049694;28;20029;-71
2021/12/02 08:38:40;;;;;;;4.20;1.42;;;;;;;;;;5050727;28;20036;-70
2021/12/02 08:41:06;;;;;;;2.42;1.08;;;;;;;;;;5049948;28;20028;-70
2021/12/02 08:43:31;;;;;;;2.05;1.30;;;;;;;;;;5049929;28;20105;-70
2021/12/02 08:45:57;;;;;;;2.13;1.17;;;;;;;;;;5049728;28;20479;-70
2021/12/02 08:48:22;;;;;;;2.03;1.25;;;;;;;;;;5050592;28;20045;-70
2021/12/02 08:50:48;;;;;;;8.32;3.22;;;;;;;;;;5050106;28;20075;-70
2021/12/02 08:53:13;;;;;;;3.78;2.45;;;;;;;;;;5049103;28;20021;-70
2021/12/02 08:55:39;;;;;;;2.85;1.33;;;;;;;;;;5049905;28;20398;-70
2021/12/02 08:58:06;;;;;;;1.45;1.20;;;;;;;;;;5050373;28;20048;-71
2021/12/02 09:00:34;;;;;;;1.70;1.00;;;;;;;;;;5049802;28;20506;-70
2021/12/02 09:03:01;;;;;;;1.67;0.60;;;;;;;;;;5046718;28;20035;-71
2021/12/02 09:05:27;;;;;;;3.53;2.63;;;;;;;;;;5050341;28;20037;-71
2021/12/02 09:07:53;;;;;;;4.47;2.25;;;;;;;;;;5050513;28;20039;-71
2021/12/02 09:10:21;;;;;;;2.42;0.80;;;;;;;;;;5051198;28;20413;-71
2021/12/02 09:12:47;;;;;;;2.17;0.90;;;;;;;;;;5048329;28;20025;-71
2021/12/02 09:15:13;;;;;;;1.83;0.90;;;;;;;;;;5047033;28;20028;-71
2021/12/02 09:17:39;;;;;;;1.55;1.27;;;;;;;;;;5032657;28;20473;-71
2021/12/02 09:20:06;;;;;;;1.90;1.00;;;;;;;;;;5029426;28;20029;-70
2021/12/02 09:22:32;;;;;;;0.90;0.50;;;;;;;;;;5029310;28;20029;-72
2021/12/02 09:24:58;;;;;;;0.70;0.70;;;;;;;;;;5042343;28;20073;-72
2021/12/02 09:27:25;;;;;;;0.80;0.80;;;;;;;;;;5049495;28;20064;-71
2021/12/02 09:29:50;;;;;;;0.75;0.40;;;;;;;;;;5047232;28;20294;-72
2021/12/02 09:32:16;;;;;;;0.68;0.68;;;;;;;;;;5048267;28;20021;-72
2021/12/02 09:34:41;;;;;;;1.50;0.80;;;;;;;;;;5060742;22;20102;-70
2021/12/02 09:37:07;;;;;;;1.95;0.73;;;;;;;;;;5029630;28;20029;-71
2021/12/02 09:39:34;;;;;;;0.55;0.55;;;;;;;;;;5029463;28;20043;-73
2021/12/02 09:42:00;;;;;;;2.63;0.65;;;;;;;;;;5028153;28;20486;-72
2021/12/02 09:44:27;;;;;;;1.50;1.17;;;;;;;;;;5028251;28;20037;-72
2021/12/02 09:46:53;;;;;;;1.90;1.42;;;;;;;;;;5029604;28;20053;-71
2021/12/02 09:49:19;;;;;;;1.05;0.80;;;;;;;;;;5029407;28;20049;-72
2021/12/02 09:54:19;;;;;;;0.45;0.45;;;;;;;;;;5029122;28;20029;-70
2021/12/02 09:56:48;;;;;;;0.50;0.50;;;;;;;;;;5029321;28;20402;-72
2021/12/02 09:59:26;;;;;;;2.08;0.70;;;;;;;;;;5029141;28;20087;-72
2021/12/02 10:01:56;;;;;;;0.70;0.70;;;;;;;;;;5027499;28;20463;-72
2021/12/02 10:04:23;;;;;;;0.60;0.60;;;;;;;;;;5029156;28;20060;-71
2021/12/02 10:06:49;;;;;;;2.35;0.80;;;;;;;;;;5028944;28;20509;-72
2021/12/02 10:09:27;;;;;;;1.08;0.80;;;;;;;;;;5028463;28;20095;-72
2021/12/02 10:11:59;;;;;;;2.30;0.60;;;;;;;;;;5028950;28;20538;-73
2021/12/02 10:14:39;;;;;;;0.65;0.63;;;;;;;;;;5028441;28;20124;-73
2021/12/02 10:17:12;;;;;;;1.05;0.60;;;;;;;;;;5029038;28;20029;-72
2021/12/02 10:22:43;;;;;;;1.90;0.70;;;;;;;;;;5029023;28;20360;-71
2021/12/02 10:25:08;;;;;;;0.95;0.70;;;;;;;;;;5028622;28;20061;-72
2021/12/02 10:27:34;;;;;;;2.60;0.70;;;;;;;;;;5028013;28;20029;-72
2021/12/02 10:29:59;;;;;;;0.60;0.57;;;;;;;;;;5028901;28;20084;-71
2021/12/02 10:32:28;;;;;;;0.60;0.60;;;;;;;;;;5028558;28;20033;-73
2021/12/02 10:35:02;;;;;;;2.58;0.60;;;;;;;;;;5028480;28;20033;-73
2021/12/02 10:37:39;;;;;;;1.83;1.27;;;;;;;;;;5029544;28;20022;-72
2021/12/02 10:40:09;;;;;;;3.95;1.40;;;;;;;;;;5028935;28;20029;-72
2021/12/02 10:42:38;;;;;;;1.05;0.80;;;;;;;;;;5027758;28;20450;-71
2021/12/02 10:45:06;;;;;;;0.60;0.60;;;;;;;;;;5028701;28;20325;-72
2021/12/02 10:47:33;;;;;;;2.70;1.40;;;;;;;;;;5029023;28;20025;-72
2021/12/02 10:50:07;;;;;;;3.10;1.08;;;;;;;;;;5028129;28;20067;-73
2021/12/02 10:52:34;;;;;;;4.88;2.08;;;;;;;;;;5025627;28;20108;-73
2021/12/02 10:55:22;;;;;;;1.17;0.70;;;;;;;;;;5028103;28;20156;-71
2021/12/02 10:57:50;;;;;;;1.85;0.93;;;;;;;;;;5027487;28;20030;-72
2021/12/02 11:00:21;;;;;;;1.30;0.70;;;;;;;;;;5030470;28;20025;-72
2021/12/02 11:02:49;;;;;;;2.85;0.70;;;;;;;;;;5032301;28;20024;-72
2021/12/02 11:05:21;;;;;;;2.90;0.80;;;;;;;;;;5032503;28;20490;-73
2021/12/02 11:07:58;;;;;;;0.70;0.70;;;;;;;;;;5032396;28;20029;-72
2021/12/02 11:10:25;;;;;;;2.03;0.95;;;;;;;;;;5033492;28;20112;-73
2021/12/02 11:12:53;;;;;;;1.20;0.93;;;;;;;;;;5033458;28;20508;-73
2021/12/02 11:15:24;;;;;;;1.33;0.70;;;;;;;;;;5032165;28;20509;-73
2021/12/02 11:17:53;;;;;;;2.10;0.70;;;;;;;;;;5030765;28;20044;-73
2021/12/02 11:20:28;;;;;;;2.50;1.45;;;;;;;;;;5031110;28;20102;-73
2021/12/02 11:23:03;;;;;;;4.45;1.75;;;;;;;;;;5031695;28;20115;-73
2021/12/02 11:25:29;;;;;;;1.90;0.80;;;;;;;;;;5030611;28;20522;-73
2021/12/02 11:27:55;;;;;;;2.83;1.00;;;;;;;;;;5032429;28;20044;-73
2021/12/02 11:30:29;;;;;;;2.25;1.20;;;;;;;;;;5032449;28;20025;-74
2021/12/02 11:32:58;;;;;;;1.58;1.13;;;;;;;;;;5030565;28;20049;-74
2021/12/02 11:35:27;;;;;;;2.08;1.08;;;;;;;;;;5031804;28;20032;-74
2021/12/02 11:38:01;;;;;;;3.63;1.50;;;;;;;;;;5032651;28;20429;-74
2021/12/02 11:40:28;;;;;;;4.53;1.30;;;;;;;;;;5034921;28;20283;-75
2021/12/02 11:42:55;;;;;;;3.33;1.50;;;;;;;;;;5046686;28;20026;-74
2021/12/02 11:45:22;;;;;;;4.03;1.17;;;;;;;;;;5038010;28;20029;-73
2021/12/02 11:47:49;;;;;;;3.95;1.60;;;;;;;;;;5034661;28;20037;-74
2021/12/02 11:50:16;;;;;;;2.40;2.20;;;;;;;;;;5034949;28;20040;-73
2021/12/02 11:52:42;;;;;;;2.30;1.52;;;;;;;;;;5031147;28;20051;-74
2021/12/02 11:55:16;;;;;;;3.03;1.40;;;;;;;;;;5028743;28;20029;-74
2021/12/02 11:57:42;;;;;;;4.63;1.73;;;;;;;;;;5031794;28;20018;-74
2021/12/02 12:00:10;;;;;;;2.80;1.35;;;;;;;;;;5031685;28;20033;-75
2021/12/02 12:02:38;;;;;;;2.90;1.60;;;;;;;;;;5030969;28;20029;-75
2021/12/02 12:05:06;;;;;;;1.42;0.93;;;;;;;;;;5030164;28;20505;-74
2021/12/02 12:07:46;;;;;;;1.83;1.33;;;;;;;;;;5031630;28;20552;-74
2021/12/02 12:10:29;;;;;;;2.67;1.20;;;;;;;;;;5033975;28;20033;-74
2021/12/02 12:13:20;;;;;;;4.38;1.17;;;;;;;;;;5033176;28;20063;-75
2021/12/02 12:15:58;;;;;;;1.77;1.15;;;;;;;;;;5033945;28;20029;-74
2021/12/02 12:18:26;;;;;;;3.90;2.15;;;;;;;;;;5031577;28;20021;-74
2021/12/02 12:20:56;;;;;;;4.85;2.03;;;;;;;;;;5031308;28;20100;-73
2021/12/02 12:23:58;;;;;;;1.15;0.80;;;;;;;;;;5030896;28;20483;-74
2021/12/02 12:26:35;;;;;;;1.10;1.00;;;;;;;;;;5030900;28;20038;-74
2021/12/02 12:29:07;;;;;;;1.38;1.15;;;;;;;;;;5031148;28;20427;-74
2021/12/02 12:32:03;;;;;;;3.17;1.20;;;;;;;;;;5031096;28;20021;-74
2021/12/02 12:35:11;;;;;;;4.75;2.78;;;;;;;;;;5030091;28;20032;-74
2021/12/02 12:37:23;;;;;;;1.88;1.20;;;;;;;;;;5027570;28;20264;-74
2021/12/02 12:40:13;;;;;;;1.90;1.20;;;;;;;;;;5029431;28;20028;-75
2021/12/02 12:42:42;;;;;;;1.25;1.08;;;;;;;;;;5030470;28;20033;-74
2021/12/02 12:45:09;;;;;;;4.10;1.30;;;;;;;;;;5029808;28;20049;-75
2021/12/02 12:47:41;;;;;;;2.47;1.35;;;;;;;;;;5030130;28;20041;-75
2021/12/02 12:50:28;;;;;;;0.80;0.80;;;;;;;;;;5030783;28;20029;-74
2021/12/02 12:53:03;;;;;;;1.73;0.77;;;;;;;;;;5029267;28;20471;-74
2021/12/02 12:55:30;;;;;;;1.88;0.90;;;;;;;;;;5030141;28;20075;-74
2021/12/02 12:58:16;;;;;;;3.03;0.90;;;;;;;;;;5024452;28;20040;-75
2021/12/02 13:00:45;;;;;;;1.33;0.90;;;;;;;;;;5030600;28;20029;-74
2021/12/02 13:03:16;;;;;;;1.90;0.90;;;;;;;;;;5030228;28;20173;-74
2021/12/02 13:05:45;;;;;;;2.45;0.90;;;;;;;;;;5030258;28;20032;-76
2021/12/02 13:08:22;;;;;;;0.98;0.85;;;;;;;;;;5029491;28;20053;-75
2021/12/02 13:10:56;;;;;;;1.15;0.90;;;;;;;;;;5030316;28;20025;-74
2021/12/02 13:13:27;;;;;;;1.25;0.80;;;;;;;;;;5029911;28;20022;-74
2021/12/02 13:16:06;;;;;;;0.75;0.70;;;;;;;;;;5030162;28;20029;-75
2021/12/02 13:18:33;;;;;;;0.70;0.60;;;;;;;;;;5029453;28;20029;-74
2021/12/02 13:21:21;;;;;;;2.10;0.80;;;;;;;;;;5029892;28;20482;-74
2021/12/02 13:24:06;;;;;;;3.47;1.63;;;;;;;;;;5029242;28;20109;-75
2021/12/02 13:26:31;;;;;;;3.13;1.00;;;;;;;;;;5029970;28;20037;-74
2021/12/02 13:29:01;;;;;;;1.10;0.70;;;;;;;;;;5028981;28;20026;-74
2021/12/02 13:31:29;;;;;;;1.17;0.80;;;;;;;;;;5029749;28;20021;-73
2021/12/02 13:33:59;;;;;;;1.33;1.00;;;;;;;;;;5029398;28;20061;-74
2021/12/02 13:36:33;;;;;;;1.02;0.80;;;;;;;;;;5029949;28;20033;-74
2021/12/02 13:39:21;;;;;;;2.05;1.00;;;;;;;;;;5029251;28;20037;-74
2021/12/02 13:42:11;;;;;;;2.20;1.02;;;;;;;;;;5029451;28;20038;-74
2021/12/02 13:44:44;;;;;;;1.00;0.70;;;;;;;;;;5029445;28;20025;-74
2021/12/02 13:47:27;;;;;;;0.77;0.77;;;;;;;;;;5028542;28;20025;-75
2021/12/02 13:49:56;;;;;;;1.02;0.77;;;;;;;;;;5028649;28;20540;-75
2021/12/02 13:52:42;;;;;;;1.58;0.85;;;;;;;;;;5029384;28;20506;-75
2021/12/02 13:55:18;;;;;;;1.73;0.77;;;;;;;;;;5029277;28;20479;-75
2021/12/02 13:57:51;;;;;;;1.85;1.23;;;;;;;;;;5029677;28;20026;-75
2021/12/02 14:00:37;;;;;;;1.20;0.83;;;;;;;;;;5028914;28;20029;-75
2021/12/02 14:03:08;;;;;;;1.90;0.85;;;;;;;;;;5029428;28;20033;-75
2021/12/02 14:05:37;;;;;;;0.75;0.70;;;;;;;;;;5029243;28;20025;-75
2021/12/02 14:08:09;;;;;;;1.60;1.05;;;;;;;;;;5029316;28;20026;-75
2021/12/02 14:10:35;;;;;;;1.38;0.88;;;;;;;;;;5028855;28;20415;-75
2021/12/02 14:13:04;;;;;;;1.75;1.30;;;;;;;;;;5028893;28;20116;-75
2021/12/02 14:15:31;;;;;;;3.00;1.73;;;;;;;;;;5029225;28;20018;-75
2021/12/02 14:18:21;;;;;;;2.35;1.80;;;;;;;;;;5029236;28;20057;-75
2021/12/02 14:20:53;;;;;;;2.10;1.58;;;;;;;;;;5029280;28;20025;-75
2021/12/02 14:23:36;;;;;;;1.08;0.98;;;;;;;;;;5028543;28;20144;-74
2021/12/02 14:26:06;;;;;;;1.20;0.80;;;;;;;;;;5029290;28;20049;-75
2021/12/02 14:28:42;;;;;;;5.78;3.20;;;;;;;;;;5029465;28;20068;-75
2021/12/02 14:31:21;;;;;;;3.45;1.40;;;;;;;;;;5027922;28;20035;-75
2021/12/02 14:33:48;;;;;;;1.50;1.08;;;;;;;;;;5027946;28;20510;-75
2021/12/02 14:36:18;;;;;;;6.03;3.40;;;;;;;;;;5032724;28;20029;-76
2021/12/02 14:38:57;;;;;;;3.30;1.92;;;;;;;;;;5033058;28;20025;-75
2021/12/02 14:41:27;;;;;;;3.17;1.17;;;;;;;;;;5033029;28;20106;-74
2021/12/02 14:43:56;;;;;;;2.88;1.30;;;;;;;;;;5030646;28;20133;-75
2021/12/02 14:46:39;;;;;;;3.88;1.42;;;;;;;;;;5033841;28;20033;-75
2021/12/02 14:49:07;;;;;;;;;;;;;;;;;;5033407;28;20026;-74
2021/12/02 14:51:55;;;;;;;3.88;1.98;;;;;;;;;;5032921;28;19913;-75
2021/12/02 14:54:35;;;;;;;6.47;3.38;;;;;;;;;;5031548;28;20109;-75
2021/12/02 14:57:03;;;;;;;3.03;1.40;;;;;;;;;;5032754;28;20033;-75
2021/12/02 14:59:31;;;;;;;1.88;1.30;;;;;;;;;;5032911;28;20033;-74
2021/12/02 15:01:58;;;;;;;0.93;0.82;;;;;;;;;;5032698;28;20040;-75
2021/12/02 15:04:26;;;;;;;2.58;1.35;;;;;;;;;;5030453;28;20026;-74
2021/12/02 15:06:52;;;;;;;2.00;1.00;;;;;;;;;;5032803;28;20029;-75
2021/12/02 15:09:27;;;;;;;7.43;3.80;;;;;;;;;;5032456;28;20022;-75
2021/12/02 15:11:52;;;;;;;2.50;1.40;;;;;;;;;;5032589;28;20056;-75